sensor_id;sensor_type;location;lat;lon;timestamp;temperature;humidity
9057;DHT22;4563;54.756;9.400;2023-03-25T00:02:07;11.60;77.40
9057;DHT22;4563;54.756;9.400;2023-03-25T00:04:34;11.60;77.40
9057;DHT22;4563;54.756;9.400;2023-03-25T00:07:04;11.60;77.50
9057;DHT22;4563;54.756;9.400;2023-03-25T00:09:33;11.60;77.50
9057;DHT22;4563;54.756;9.400;2023-03-25T00:11:59;11.60;77.50
9057;DHT22;4563;54.756;9.400;2023-03-25T00:14:26;11.60;77.50
9057;DHT22;4563;54.756;9.400;2023-03-25T00:16:53;11.60;77.50
9057;DHT22;4563;54.756;9.400;2023-03-25T00:19:20;11.60;77.50
9057;DHT22;4563;54.756;9.400;2023-03-25T00:21:46;11.60;77.60
9057;DHT22;4563;54.756;9.400;2023-03-25T00:24:15;11.70;77.70
9057;DHT22;4563;54.756;9.400;2023-03-25T00:26:44;11.60;77.60
9057;DHT22;4563;54.756;9.400;2023-03-25T00:29:11;11.60;77.60
9057;DHT22;4563;54.756;9.400;2023-03-25T00:31:38;11.70;77.80
9057;DHT22;4563;54.756;9.400;2023-03-25T00:34:05;11.70;77.80
9057;DHT22;4563;54.756;9.400;2023-03-25T00:36:32;11.70;77.80
9057;DHT22;4563;54.756;9.400;2023-03-25T00:39:02;11.70;77.70
9057;DHT22;4563;54.756;9.400;2023-03-25T00:41:29;11.70;77.80
9057;DHT22;4563;54.756;9.400;2023-03-25T00:43:59;11.70;77.70
9057;DHT22;4563;54.756;9.400;2023-03-25T00:46:27;11.70;77.80
9057;DHT22;4563;54.756;9.400;2023-03-25T00:48:54;11.70;77.80
9057;DHT22;4563;54.756;9.400;2023-03-25T00:51:23;11.70;77.80
9057;DHT22;4563;54.756;9.400;2023-03-25T00:53:52;11.70;77.80
9057;DHT22;4563;54.756;9.400;2023-03-25T00:56:19;11.80;77.90
9057;DHT22;4563;54.756;9.400;2023-03-25T00:58:45;11.70;77.70
9057;DHT22;4563;54.756;9.400;2023-03-25T01:01:15;11.70;77.70
9057;DHT22;4563;54.756;9.400;2023-03-25T01:03:43;11.70;77.70
9057;DHT22;4563;54.756;9.400;2023-03-25T01:06:11;11.80;77.80
9057;DHT22;4563;54.756;9.400;2023-03-25T01:08:38;11.80;77.70
9057;DHT22;4563;54.756;9.400;2023-03-25T01:11:06;11.80;77.70
9057;DHT22;4563;54.756;9.400;2023-03-25T01:13:33;11.80;77.70
9057;DHT22;4563;54.756;9.400;2023-03-25T01:16:00;11.80;77.70
9057;DHT22;4563;54.756;9.400;2023-03-25T01:18:28;11.80;77.70
9057;DHT22;4563;54.756;9.400;2023-03-25T01:20:59;11.80;77.70
9057;DHT22;4563;54.756;9.400;2023-03-25T01:23:26;11.80;77.60
9057;DHT22;4563;54.756;9.400;2023-03-25T01:25:52;11.80;77.60
9057;DHT22;4563;54.756;9.400;2023-03-25T01:28:19;11.80;77.60
9057;DHT22;4563;54.756;9.400;2023-03-25T01:30:46;11.80;77.60
9057;DHT22;4563;54.756;9.400;2023-03-25T01:33:13;11.80;77.50
9057;DHT22;4563;54.756;9.400;2023-03-25T01:35:41;11.80;77.60
9057;DHT22;4563;54.756;9.400;2023-03-25T01:38:08;11.80;77.70
9057;DHT22;4563;54.756;9.400;2023-03-25T01:40:35;11.80;77.60
9057;DHT22;4563;54.756;9.400;2023-03-25T01:43:02;11.80;77.70
9057;DHT22;4563;54.756;9.400;2023-03-25T01:45:29;11.80;77.70
9057;DHT22;4563;54.756;9.400;2023-03-25T01:48:02;11.80;77.70
9057;DHT22;4563;54.756;9.400;2023-03-25T01:50:33;11.80;77.80
9057;DHT22;4563;54.756;9.400;2023-03-25T01:53:04;11.80;77.90
9057;DHT22;4563;54.756;9.400;2023-03-25T01:55:33;11.80;78.00
9057;DHT22;4563;54.756;9.400;2023-03-25T01:58:03;11.70;77.90
9057;DHT22;4563;54.756;9.400;2023-03-25T02:00:37;11.80;78.00
9057;DHT22;4563;54.756;9.400;2023-03-25T02:03:05;11.70;78.00
9057;DHT22;4563;54.756;9.400;2023-03-25T02:05:36;11.70;78.10
9057;DHT22;4563;54.756;9.400;2023-03-25T02:08:06;11.70;78.10
9057;DHT22;4563;54.756;9.400;2023-03-25T02:10:35;11.70;78.30
9057;DHT22;4563;54.756;9.400;2023-03-25T02:13:02;11.70;78.30
9057;DHT22;4563;54.756;9.400;2023-03-25T02:15:39;11.70;78.40
9057;DHT22;4563;54.756;9.400;2023-03-25T02:18:18;11.70;78.50
9057;DHT22;4563;54.756;9.400;2023-03-25T02:24:31;11.70;78.70
9057;DHT22;4563;54.756;9.400;2023-03-25T02:27:16;11.70;78.70
9057;DHT22;4563;54.756;9.400;2023-03-25T02:35:58;11.60;78.90
9057;DHT22;4563;54.756;9.400;2023-03-25T02:38:34;11.60;78.90
9057;DHT22;4563;54.756;9.400;2023-03-25T02:41:05;11.60;79.00
9057;DHT22;4563;54.756;9.400;2023-03-25T02:43:38;11.60;79.10
9057;DHT22;4563;54.756;9.400;2023-03-25T02:46:08;11.60;79.10
9057;DHT22;4563;54.756;9.400;2023-03-25T02:48:41;11.60;79.20
9057;DHT22;4563;54.756;9.400;2023-03-25T02:51:15;11.60;79.20
9057;DHT22;4563;54.756;9.400;2023-03-25T02:53:46;11.60;79.20
9057;DHT22;4563;54.756;9.400;2023-03-25T02:56:15;11.60;79.30
9057;DHT22;4563;54.756;9.400;2023-03-25T02:58:47;11.60;79.40
9057;DHT22;4563;54.756;9.400;2023-03-25T03:01:16;11.60;79.40
9057;DHT22;4563;54.756;9.400;2023-03-25T03:03:42;11.60;79.40
9057;DHT22;4563;54.756;9.400;2023-03-25T03:06:15;11.60;79.40
9057;DHT22;4563;54.756;9.400;2023-03-25T03:09:05;11.60;79.40
9057;DHT22;4563;54.756;9.400;2023-03-25T03:11:39;11.60;79.30
9057;DHT22;4563;54.756;9.400;2023-03-25T03:14:21;11.60;79.50
9057;DHT22;4563;54.756;9.400;2023-03-25T03:16:57;11.60;79.40
9057;DHT22;4563;54.756;9.400;2023-03-25T03:19:34;11.50;79.30
9057;DHT22;4563;54.756;9.400;2023-03-25T03:22:14;11.50;79.20
9057;DHT22;4563;54.756;9.400;2023-03-25T03:24:48;11.50;79.20
9057;DHT22;4563;54.756;9.400;2023-03-25T03:27:21;11.50;79.30
9057;DHT22;4563;54.756;9.400;2023-03-25T03:29:55;11.50;79.20
9057;DHT22;4563;54.756;9.400;2023-03-25T03:32:27;11.50;79.20
9057;DHT22;4563;54.756;9.400;2023-03-25T03:34:57;11.50;79.10
9057;DHT22;4563;54.756;9.400;2023-03-25T03:37:28;11.50;79.10
9057;DHT22;4563;54.756;9.400;2023-03-25T03:39:58;11.50;79.10
9057;DHT22;4563;54.756;9.400;2023-03-25T03:42:28;11.50;79.10
9057;DHT22;4563;54.756;9.400;2023-03-25T03:45:00;11.50;79.10
9057;DHT22;4563;54.756;9.400;2023-03-25T03:47:30;11.50;79.10
9057;DHT22;4563;54.756;9.400;2023-03-25T03:49:58;11.50;79.10
9057;DHT22;4563;54.756;9.400;2023-03-25T03:52:31;11.50;79.10
9057;DHT22;4563;54.756;9.400;2023-03-25T03:55:06;11.50;79.10
9057;DHT22;4563;54.756;9.400;2023-03-25T03:57:40;11.50;79.10
9057;DHT22;4563;54.756;9.400;2023-03-25T04:00:12;11.50;79.10
9057;DHT22;4563;54.756;9.400;2023-03-25T04:02:44;11.50;79.10
9057;DHT22;4563;54.756;9.400;2023-03-25T04:05:14;11.50;79.00
9057;DHT22;4563;54.756;9.400;2023-03-25T04:07:44;11.50;79.00
9057;DHT22;4563;54.756;9.400;2023-03-25T04:10:22;11.50;79.00
9057;DHT22;4563;54.756;9.400;2023-03-25T04:12:55;11.50;79.00
9057;DHT22;4563;54.756;9.400;2023-03-25T04:15:24;11.50;79.00
9057;DHT22;4563;54.756;9.400;2023-03-25T04:17:51;11.50;78.90
9057;DHT22;4563;54.756;9.400;2023-03-25T04:20:21;11.50;78.80
9057;DHT22;4563;54.756;9.400;2023-03-25T04:22:49;11.50;78.90
9057;DHT22;4563;54.756;9.400;2023-03-25T04:25:17;11.50;78.80
9057;DHT22;4563;54.756;9.400;2023-03-25T04:27:47;11.50;78.80
9057;DHT22;4563;54.756;9.400;2023-03-25T04:30:15;11.50;78.70
9057;DHT22;4563;54.756;9.400;2023-03-25T04:32:43;11.50;78.70
9057;DHT22;4563;54.756;9.400;2023-03-25T04:35:11;11.50;78.70
9057;DHT22;4563;54.756;9.400;2023-03-25T04:37:38;11.50;78.60
9057;DHT22;4563;54.756;9.400;2023-03-25T04:40:07;11.50;78.60
9057;DHT22;4563;54.756;9.400;2023-03-25T04:42:34;11.50;78.60
9057;DHT22;4563;54.756;9.400;2023-03-25T04:45:03;11.50;78.60
9057;DHT22;4563;54.756;9.400;2023-03-25T04:47:30;11.50;78.70
9057;DHT22;4563;54.756;9.400;2023-03-25T04:49:58;11.50;78.60
9057;DHT22;4563;54.756;9.400;2023-03-25T04:52:25;11.50;78.60
9057;DHT22;4563;54.756;9.400;2023-03-25T04:54:51;11.50;78.60
9057;DHT22;4563;54.756;9.400;2023-03-25T04:57:18;11.50;78.60
9057;DHT22;4563;54.756;9.400;2023-03-25T04:59:45;11.50;78.60
9057;DHT22;4563;54.756;9.400;2023-03-25T05:02:13;11.40;78.40
9057;DHT22;4563;54.756;9.400;2023-03-25T05:04:42;11.50;78.50
9057;DHT22;4563;54.756;9.400;2023-03-25T05:07:11;11.50;78.50
9057;DHT22;4563;54.756;9.400;2023-03-25T05:09:40;11.50;78.50
9057;DHT22;4563;54.756;9.400;2023-03-25T05:12:07;11.40;78.40
9057;DHT22;4563;54.756;9.400;2023-03-25T05:14:35;11.50;78.40
9057;DHT22;4563;54.756;9.400;2023-03-25T05:17:02;11.40;78.30
9057;DHT22;4563;54.756;9.400;2023-03-25T05:19:30;11.40;78.40
9057;DHT22;4563;54.756;9.400;2023-03-25T05:21:59;11.40;78.30
9057;DHT22;4563;54.756;9.400;2023-03-25T05:24:27;11.40;78.40
9057;DHT22;4563;54.756;9.400;2023-03-25T05:26:54;11.40;78.40
9057;DHT22;4563;54.756;9.400;2023-03-25T05:29:21;11.40;78.40
9057;DHT22;4563;54.756;9.400;2023-03-25T05:31:48;11.40;78.40
9057;DHT22;4563;54.756;9.400;2023-03-25T05:34:15;11.40;78.40
9057;DHT22;4563;54.756;9.400;2023-03-25T05:36:43;11.40;78.50
9057;DHT22;4563;54.756;9.400;2023-03-25T05:39:10;11.40;78.40
9057;DHT22;4563;54.756;9.400;2023-03-25T05:41:37;11.40;78.50
9057;DHT22;4563;54.756;9.400;2023-03-25T05:44:04;11.40;79.20
9057;DHT22;4563;54.756;9.400;2023-03-25T05:46:31;11.40;78.50
9057;DHT22;4563;54.756;9.400;2023-03-25T05:48:58;11.40;78.60
9057;DHT22;4563;54.756;9.400;2023-03-25T05:51:27;11.30;78.50
9057;DHT22;4563;54.756;9.400;2023-03-25T05:53:55;11.40;78.60
9057;DHT22;4563;54.756;9.400;2023-03-25T05:56:22;11.40;78.50
9057;DHT22;4563;54.756;9.400;2023-03-25T05:58:51;11.40;78.60
9057;DHT22;4563;54.756;9.400;2023-03-25T06:01:19;11.40;78.70
9057;DHT22;4563;54.756;9.400;2023-03-25T06:03:47;11.40;78.70
9057;DHT22;4563;54.756;9.400;2023-03-25T06:06:15;11.30;78.50
9057;DHT22;4563;54.756;9.400;2023-03-25T06:08:44;11.40;78.80
9057;DHT22;4563;54.756;9.400;2023-03-25T06:11:12;11.30;78.60
9057;DHT22;4563;54.756;9.400;2023-03-25T06:13:40;11.30;78.60
9057;DHT22;4563;54.756;9.400;2023-03-25T06:16:16;11.30;78.70
9057;DHT22;4563;54.756;9.400;2023-03-25T06:18:45;11.30;78.70
9057;DHT22;4563;54.756;9.400;2023-03-25T06:21:16;11.30;78.70
9057;DHT22;4563;54.756;9.400;2023-03-25T06:23:43;11.30;78.70
9057;DHT22;4563;54.756;9.400;2023-03-25T06:26:10;11.30;78.70
9057;DHT22;4563;54.756;9.400;2023-03-25T06:28:38;11.30;78.70
9057;DHT22;4563;54.756;9.400;2023-03-25T06:31:11;11.30;78.80
9057;DHT22;4563;54.756;9.400;2023-03-25T06:33:38;11.30;78.80
9057;DHT22;4563;54.756;9.400;2023-03-25T06:36:06;11.30;78.80
9057;DHT22;4563;54.756;9.400;2023-03-25T06:38:33;11.30;78.80
9057;DHT22;4563;54.756;9.400;2023-03-25T06:41:00;11.30;78.80
9057;DHT22;4563;54.756;9.400;2023-03-25T06:43:27;11.30;78.80
9057;DHT22;4563;54.756;9.400;2023-03-25T06:45:55;11.30;78.80
9057;DHT22;4563;54.756;9.400;2023-03-25T06:48:22;11.30;78.90
9057;DHT22;4563;54.756;9.400;2023-03-25T06:50:49;11.30;78.90
9057;DHT22;4563;54.756;9.400;2023-03-25T06:53:15;11.30;78.90
9057;DHT22;4563;54.756;9.400;2023-03-25T06:55:42;11.30;79.00
9057;DHT22;4563;54.756;9.400;2023-03-25T06:58:10;11.30;79.00
9057;DHT22;4563;54.756;9.400;2023-03-25T07:00:37;11.30;79.00
9057;DHT22;4563;54.756;9.400;2023-03-25T07:03:05;11.30;78.90
9057;DHT22;4563;54.756;9.400;2023-03-25T07:05:32;11.30;79.00
9057;DHT22;4563;54.756;9.400;2023-03-25T07:07:59;11.30;79.00
9057;DHT22;4563;54.756;9.400;2023-03-25T07:10:25;11.30;79.00
9057;DHT22;4563;54.756;9.400;2023-03-25T07:12:52;11.30;79.00
9057;DHT22;4563;54.756;9.400;2023-03-25T07:15:19;11.30;79.00
9057;DHT22;4563;54.756;9.400;2023-03-25T07:17:46;11.30;79.00
9057;DHT22;4563;54.756;9.400;2023-03-25T07:20:15;11.40;79.10
9057;DHT22;4563;54.756;9.400;2023-03-25T07:22:42;11.40;79.10
9057;DHT22;4563;54.756;9.400;2023-03-25T07:25:09;11.40;79.10
9057;DHT22;4563;54.756;9.400;2023-03-25T07:27:35;11.40;79.10
9057;DHT22;4563;54.756;9.400;2023-03-25T07:30:03;11.40;79.10
9057;DHT22;4563;54.756;9.400;2023-03-25T07:32:29;11.40;79.20
9057;DHT22;4563;54.756;9.400;2023-03-25T07:34:56;11.40;79.20
9057;DHT22;4563;54.756;9.400;2023-03-25T07:37:24;11.40;79.20
9057;DHT22;4563;54.756;9.400;2023-03-25T07:39:51;11.40;79.20
9057;DHT22;4563;54.756;9.400;2023-03-25T07:42:18;11.50;79.30
9057;DHT22;4563;54.756;9.400;2023-03-25T07:44:45;11.50;79.30
9057;DHT22;4563;54.756;9.400;2023-03-25T07:47:11;11.50;79.30
9057;DHT22;4563;54.756;9.400;2023-03-25T07:49:38;11.50;79.30
9057;DHT22;4563;54.756;9.400;2023-03-25T07:52:06;11.50;79.20
9057;DHT22;4563;54.756;9.400;2023-03-25T07:54:34;11.60;79.20
9057;DHT22;4563;54.756;9.400;2023-03-25T07:57:01;11.60;79.20
9057;DHT22;4563;54.756;9.400;2023-03-25T07:59:28;11.60;79.90
9057;DHT22;4563;54.756;9.400;2023-03-25T08:01:55;11.60;79.20
9057;DHT22;4563;54.756;9.400;2023-03-25T08:04:21;11.60;79.20
9057;DHT22;4563;54.756;9.400;2023-03-25T08:06:48;11.60;79.20
9057;DHT22;4563;54.756;9.400;2023-03-25T08:09:15;11.60;79.20
9057;DHT22;4563;54.756;9.400;2023-03-25T08:11:43;11.60;79.00
9057;DHT22;4563;54.756;9.400;2023-03-25T08:14:10;11.70;79.00
9057;DHT22;4563;54.756;9.400;2023-03-25T08:16:37;11.70;78.90
9057;DHT22;4563;54.756;9.400;2023-03-25T08:19:18;11.70;78.50
9057;DHT22;4563;54.756;9.400;2023-03-25T08:21:45;11.70;78.60
9057;DHT22;4563;54.756;9.400;2023-03-25T08:24:14;11.70;78.50
9057;DHT22;4563;54.756;9.400;2023-03-25T08:30:01;11.80;78.70
9057;DHT22;4563;54.756;9.400;2023-03-25T08:32:30;11.80;78.60
9057;DHT22;4563;54.756;9.400;2023-03-25T08:34:57;11.80;78.70
9057;DHT22;4563;54.756;9.400;2023-03-25T08:37:23;11.90;78.70
9057;DHT22;4563;54.756;9.400;2023-03-25T08:39:51;11.90;78.60
9057;DHT22;4563;54.756;9.400;2023-03-25T08:42:20;11.90;78.60
9057;DHT22;4563;54.756;9.400;2023-03-25T08:44:47;11.90;78.50
9057;DHT22;4563;54.756;9.400;2023-03-25T08:47:15;11.90;78.40
9057;DHT22;4563;54.756;9.400;2023-03-25T08:49:43;11.90;78.30
9057;DHT22;4563;54.756;9.400;2023-03-25T08:52:10;11.90;78.30
9057;DHT22;4563;54.756;9.400;2023-03-25T08:54:37;11.90;78.40
9057;DHT22;4563;54.756;9.400;2023-03-25T08:57:04;12.00;78.40
9057;DHT22;4563;54.756;9.400;2023-03-25T08:59:30;12.00;78.50
9057;DHT22;4563;54.756;9.400;2023-03-25T09:01:57;12.00;78.50
9057;DHT22;4563;54.756;9.400;2023-03-25T09:04:26;12.00;78.60
9057;DHT22;4563;54.756;9.400;2023-03-25T09:06:55;12.00;78.60
9057;DHT22;4563;54.756;9.400;2023-03-25T09:09:22;12.00;78.40
9057;DHT22;4563;54.756;9.400;2023-03-25T09:11:49;12.00;78.60
9057;DHT22;4563;54.756;9.400;2023-03-25T09:14:15;12.00;78.80
9057;DHT22;4563;54.756;9.400;2023-03-25T09:16:42;12.00;78.90
9057;DHT22;4563;54.756;9.400;2023-03-25T09:19:09;12.00;79.00
9057;DHT22;4563;54.756;9.400;2023-03-25T09:21:37;12.00;79.20
9057;DHT22;4563;54.756;9.400;2023-03-25T09:24:04;12.00;79.20
9057;DHT22;4563;54.756;9.400;2023-03-25T09:26:33;12.10;79.40
9057;DHT22;4563;54.756;9.400;2023-03-25T09:29:00;12.10;79.20
9057;DHT22;4563;54.756;9.400;2023-03-25T09:31:26;12.10;79.40
9057;DHT22;4563;54.756;9.400;2023-03-25T09:33:53;12.10;79.40
9057;DHT22;4563;54.756;9.400;2023-03-25T09:36:20;12.10;79.30
9057;DHT22;4563;54.756;9.400;2023-03-25T09:38:49;12.20;79.20
9057;DHT22;4563;54.756;9.400;2023-03-25T09:41:29;12.20;79.00
9057;DHT22;4563;54.756;9.400;2023-03-25T09:44:06;12.20;78.90
9057;DHT22;4563;54.756;9.400;2023-03-25T09:49:14;12.20;78.80
9057;DHT22;4563;54.756;9.400;2023-03-25T09:51:43;12.20;78.70
9057;DHT22;4563;54.756;9.400;2023-03-25T09:54:19;12.20;78.60
9057;DHT22;4563;54.756;9.400;2023-03-25T09:56:48;12.20;78.60
9057;DHT22;4563;54.756;9.400;2023-03-25T09:59:18;12.20;78.70
9057;DHT22;4563;54.756;9.400;2023-03-25T10:01:51;12.20;78.80
9057;DHT22;4563;54.756;9.400;2023-03-25T10:07:44;12.20;78.90
9057;DHT22;4563;54.756;9.400;2023-03-25T10:10:22;12.30;79.00
9057;DHT22;4563;54.756;9.400;2023-03-25T10:12:59;12.20;79.00
9057;DHT22;4563;54.756;9.400;2023-03-25T10:15:32;12.30;79.00
9057;DHT22;4563;54.756;9.400;2023-03-25T10:18:22;12.30;78.80
9057;DHT22;4563;54.756;9.400;2023-03-25T10:20:59;12.30;78.50
9057;DHT22;4563;54.756;9.400;2023-03-25T10:23:33;12.40;78.40
9057;DHT22;4563;54.756;9.400;2023-03-25T10:26:04;12.40;78.20
9057;DHT22;4563;54.756;9.400;2023-03-25T10:28:39;12.40;78.30
9057;DHT22;4563;54.756;9.400;2023-03-25T10:31:10;12.40;78.40
9057;DHT22;4563;54.756;9.400;2023-03-25T10:33:42;12.50;78.40
9057;DHT22;4563;54.756;9.400;2023-03-25T10:36:17;12.50;78.40
9057;DHT22;4563;54.756;9.400;2023-03-25T10:38:49;12.50;78.30
9057;DHT22;4563;54.756;9.400;2023-03-25T10:41:25;12.60;78.10
9057;DHT22;4563;54.756;9.400;2023-03-25T10:43:52;12.60;77.70
9057;DHT22;4563;54.756;9.400;2023-03-25T10:46:25;12.60;77.60
9057;DHT22;4563;54.756;9.400;2023-03-25T10:48:54;12.70;77.70
9057;DHT22;4563;54.756;9.400;2023-03-25T10:51:25;12.70;77.70
9057;DHT22;4563;54.756;9.400;2023-03-25T10:53:52;12.70;77.50
9057;DHT22;4563;54.756;9.400;2023-03-25T10:56:24;12.70;77.30
9057;DHT22;4563;54.756;9.400;2023-03-25T10:58:52;12.70;77.30
9057;DHT22;4563;54.756;9.400;2023-03-25T11:01:26;12.80;77.50
9057;DHT22;4563;54.756;9.400;2023-03-25T11:03:56;12.80;77.40
9057;DHT22;4563;54.756;9.400;2023-03-25T11:06:27;12.80;78.10
9057;DHT22;4563;54.756;9.400;2023-03-25T11:08:56;12.90;77.30
9057;DHT22;4563;54.756;9.400;2023-03-25T11:11:31;12.90;77.00
9057;DHT22;4563;54.756;9.400;2023-03-25T11:13:58;13.00;77.70
9057;DHT22;4563;54.756;9.400;2023-03-25T11:16:25;13.10;76.80
9057;DHT22;4563;54.756;9.400;2023-03-25T11:18:52;13.10;76.50
9057;DHT22;4563;54.756;9.400;2023-03-25T11:21:20;13.10;76.10
9057;DHT22;4563;54.756;9.400;2023-03-25T11:23:47;13.20;76.30
9057;DHT22;4563;54.756;9.400;2023-03-25T11:26:19;13.30;76.50
9057;DHT22;4563;54.756;9.400;2023-03-25T11:28:49;13.40;76.80
9057;DHT22;4563;54.756;9.400;2023-03-25T11:31:19;13.40;76.80
9057;DHT22;4563;54.756;9.400;2023-03-25T11:34:02;13.50;76.50
9057;DHT22;4563;54.756;9.400;2023-03-25T11:36:31;13.60;76.10
9057;DHT22;4563;54.756;9.400;2023-03-25T11:39:00;13.70;75.70
9057;DHT22;4563;54.756;9.400;2023-03-25T11:41:30;13.80;75.30
9057;DHT22;4563;54.756;9.400;2023-03-25T11:44:00;13.90;75.50
9057;DHT22;4563;54.756;9.400;2023-03-25T11:46:27;13.90;75.00
9057;DHT22;4563;54.756;9.400;2023-03-25T11:48:54;14.00;74.90
9057;DHT22;4563;54.756;9.400;2023-03-25T11:51:22;14.10;75.00
9057;DHT22;4563;54.756;9.400;2023-03-25T11:53:55;14.10;74.40
9057;DHT22;4563;54.756;9.400;2023-03-25T11:56:27;14.20;74.20
9057;DHT22;4563;54.756;9.400;2023-03-25T11:58:58;14.30;74.00
9057;DHT22;4563;54.756;9.400;2023-03-25T12:01:28;14.30;73.70
9057;DHT22;4563;54.756;9.400;2023-03-25T12:04:07;14.30;73.50
9057;DHT22;4563;54.756;9.400;2023-03-25T12:06:52;14.30;73.40
9057;DHT22;4563;54.756;9.400;2023-03-25T12:09:19;14.40;73.20
9057;DHT22;4563;54.756;9.400;2023-03-25T12:11:54;14.40;72.70
9057;DHT22;4563;54.756;9.400;2023-03-25T12:14:34;14.40;72.50
9057;DHT22;4563;54.756;9.400;2023-03-25T12:17:08;14.40;72.30
9057;DHT22;4563;54.756;9.400;2023-03-25T12:19:47;14.40;72.00
9057;DHT22;4563;54.756;9.400;2023-03-25T12:22:30;14.40;72.00
9057;DHT22;4563;54.756;9.400;2023-03-25T12:25:25;14.40;71.90
9057;DHT22;4563;54.756;9.400;2023-03-25T12:28:13;14.30;72.20
9057;DHT22;4563;54.756;9.400;2023-03-25T12:30:53;14.30;72.30
9057;DHT22;4563;54.756;9.400;2023-03-25T12:33:33;14.30;72.50
9057;DHT22;4563;54.756;9.400;2023-03-25T12:36:19;14.30;72.10
9057;DHT22;4563;54.756;9.400;2023-03-25T12:39:00;14.30;72.60
9057;DHT22;4563;54.756;9.400;2023-03-25T12:41:32;14.30;71.80
9057;DHT22;4563;54.756;9.400;2023-03-25T12:44:03;14.30;71.80
9057;DHT22;4563;54.756;9.400;2023-03-25T12:46:52;14.30;71.80
9057;DHT22;4563;54.756;9.400;2023-03-25T12:49:33;14.30;72.20
9057;DHT22;4563;54.756;9.400;2023-03-25T12:52:08;14.20;71.60
9057;DHT22;4563;54.756;9.400;2023-03-25T12:54:49;14.30;71.80
9057;DHT22;4563;54.756;9.400;2023-03-25T12:57:27;14.30;71.50
9057;DHT22;4563;54.756;9.400;2023-03-25T13:00:24;14.30;71.60
9057;DHT22;4563;54.756;9.400;2023-03-25T13:03:17;14.30;71.70
9057;DHT22;4563;54.756;9.400;2023-03-25T13:05:51;14.30;71.80
9057;DHT22;4563;54.756;9.400;2023-03-25T13:08:23;14.30;71.70
9057;DHT22;4563;54.756;9.400;2023-03-25T13:10:59;14.30;71.90
9057;DHT22;4563;54.756;9.400;2023-03-25T13:13:28;14.20;72.00
9057;DHT22;4563;54.756;9.400;2023-03-25T13:16:02;14.20;72.00
9057;DHT22;4563;54.756;9.400;2023-03-25T13:18:35;14.20;72.30
9057;DHT22;4563;54.756;9.400;2023-03-25T13:21:07;14.20;72.50
9057;DHT22;4563;54.756;9.400;2023-03-25T13:23:36;14.20;72.50
9057;DHT22;4563;54.756;9.400;2023-03-25T13:26:08;14.10;72.30
9057;DHT22;4563;54.756;9.400;2023-03-25T13:28:39;14.10;72.20
9057;DHT22;4563;54.756;9.400;2023-03-25T13:31:11;14.10;72.50
9057;DHT22;4563;54.756;9.400;2023-03-25T13:33:44;14.10;71.90
9057;DHT22;4563;54.756;9.400;2023-03-25T13:36:16;14.10;71.60
9057;DHT22;4563;54.756;9.400;2023-03-25T13:38:49;14.10;71.30
9057;DHT22;4563;54.756;9.400;2023-03-25T13:41:20;14.10;71.40
9057;DHT22;4563;54.756;9.400;2023-03-25T13:43:55;14.10;71.20
9057;DHT22;4563;54.756;9.400;2023-03-25T13:46:29;14.00;70.90
9057;DHT22;4563;54.756;9.400;2023-03-25T13:49:05;14.00;71.10
9057;DHT22;4563;54.756;9.400;2023-03-25T13:51:33;14.00;71.40
9057;DHT22;4563;54.756;9.400;2023-03-25T13:54:03;14.00;71.10
9057;DHT22;4563;54.756;9.400;2023-03-25T13:57:07;13.90;70.90
9057;DHT22;4563;54.756;9.400;2023-03-25T14:02:58;13.90;71.00
9057;DHT22;4563;54.756;9.400;2023-03-25T14:05:44;13.90;71.10
9057;DHT22;4563;54.756;9.400;2023-03-25T14:11:30;13.90;72.30
9057;DHT22;4563;54.756;9.400;2023-03-25T14:14:03;13.90;71.30
9057;DHT22;4563;54.756;9.400;2023-03-25T14:16:34;13.90;71.90
9057;DHT22;4563;54.756;9.400;2023-03-25T14:19:08;13.90;71.10
9057;DHT22;4563;54.756;9.400;2023-03-25T14:21:42;13.90;71.00
9057;DHT22;4563;54.756;9.400;2023-03-25T14:24:13;13.90;71.10
9057;DHT22;4563;54.756;9.400;2023-03-25T14:26:45;13.90;71.00
9057;DHT22;4563;54.756;9.400;2023-03-25T14:29:22;13.90;71.00
9057;DHT22;4563;54.756;9.400;2023-03-25T14:32:09;13.90;71.20
9057;DHT22;4563;54.756;9.400;2023-03-25T14:34:50;13.90;71.30
9057;DHT22;4563;54.756;9.400;2023-03-25T14:37:24;13.90;70.10
9057;DHT22;4563;54.756;9.400;2023-03-25T14:39:52;13.90;71.20
9057;DHT22;4563;54.756;9.400;2023-03-25T14:42:28;13.90;71.00
9057;DHT22;4563;54.756;9.400;2023-03-25T14:45:32;13.90;71.00
9057;DHT22;4563;54.756;9.400;2023-03-25T14:48:05;13.90;71.30
9057;DHT22;4563;54.756;9.400;2023-03-25T14:50:35;13.80;70.80
9057;DHT22;4563;54.756;9.400;2023-03-25T14:53:04;13.80;70.80
9057;DHT22;4563;54.756;9.400;2023-03-25T14:55:40;13.80;70.70
9057;DHT22;4563;54.756;9.400;2023-03-25T14:58:16;13.80;70.70
9057;DHT22;4563;54.756;9.400;2023-03-25T15:00:51;13.80;70.80
9057;DHT22;4563;54.756;9.400;2023-03-25T15:03:18;13.70;70.50
9057;DHT22;4563;54.756;9.400;2023-03-25T15:05:53;13.70;70.60
9057;DHT22;4563;54.756;9.400;2023-03-25T15:08:25;13.70;70.70
9057;DHT22;4563;54.756;9.400;2023-03-25T15:11:03;13.60;70.50
9057;DHT22;4563;54.756;9.400;2023-03-25T15:13:34;13.60;70.70
9057;DHT22;4563;54.756;9.400;2023-03-25T15:16:03;13.60;70.70
9057;DHT22;4563;54.756;9.400;2023-03-25T15:18:57;13.60;71.00
9057;DHT22;4563;54.756;9.400;2023-03-25T15:21:24;13.60;71.40
9057;DHT22;4563;54.756;9.400;2023-03-25T15:23:59;13.60;71.20
9057;DHT22;4563;54.756;9.400;2023-03-25T15:26:28;13.50;70.90
9057;DHT22;4563;54.756;9.400;2023-03-25T15:29:27;13.60;71.00
9057;DHT22;4563;54.756;9.400;2023-03-25T15:32:10;13.50;71.10
9057;DHT22;4563;54.756;9.400;2023-03-25T15:34:51;13.50;70.50
9057;DHT22;4563;54.756;9.400;2023-03-25T15:37:37;13.50;70.30
9057;DHT22;4563;54.756;9.400;2023-03-25T15:40:16;13.50;70.20
9057;DHT22;4563;54.756;9.400;2023-03-25T15:43:19;13.50;70.30
9057;DHT22;4563;54.756;9.400;2023-03-25T15:49:33;13.40;70.70
9057;DHT22;4563;54.756;9.400;2023-03-25T15:52:13;13.40;71.00
9057;DHT22;4563;54.756;9.400;2023-03-25T15:54:44;13.40;70.50
9057;DHT22;4563;54.756;9.400;2023-03-25T15:57:21;13.40;70.50
9057;DHT22;4563;54.756;9.400;2023-03-25T15:59:54;13.40;70.80
9057;DHT22;4563;54.756;9.400;2023-03-25T16:02:27;13.30;70.90
9057;DHT22;4563;54.756;9.400;2023-03-25T16:04:56;13.30;71.00
9057;DHT22;4563;54.756;9.400;2023-03-25T16:07:26;13.30;71.30
9057;DHT22;4563;54.756;9.400;2023-03-25T16:09:55;13.30;71.30
9057;DHT22;4563;54.756;9.400;2023-03-25T16:12:25;13.20;71.30
9057;DHT22;4563;54.756;9.400;2023-03-25T16:14:54;13.20;71.40
9057;DHT22;4563;54.756;9.400;2023-03-25T16:17:27;13.20;71.30
9057;DHT22;4563;54.756;9.400;2023-03-25T16:19:56;13.20;71.50
9057;DHT22;4563;54.756;9.400;2023-03-25T16:22:26;13.20;71.40
9057;DHT22;4563;54.756;9.400;2023-03-25T16:24:55;13.10;71.30
9057;DHT22;4563;54.756;9.400;2023-03-25T16:27:26;13.10;71.30
9057;DHT22;4563;54.756;9.400;2023-03-25T16:29:55;13.10;71.40
9057;DHT22;4563;54.756;9.400;2023-03-25T16:32:24;13.10;71.60
9057;DHT22;4563;54.756;9.400;2023-03-25T16:34:51;13.00;71.50
9057;DHT22;4563;54.756;9.400;2023-03-25T16:37:19;13.00;71.50
9057;DHT22;4563;54.756;9.400;2023-03-25T16:39:50;13.00;71.70
9057;DHT22;4563;54.756;9.400;2023-03-25T16:42:20;12.90;71.50
9057;DHT22;4563;54.756;9.400;2023-03-25T16:44:51;12.90;71.60
9057;DHT22;4563;54.756;9.400;2023-03-25T16:47:19;12.90;71.50
9057;DHT22;4563;54.756;9.400;2023-03-25T16:49:50;12.90;71.50
9057;DHT22;4563;54.756;9.400;2023-03-25T16:52:22;12.90;71.50
9057;DHT22;4563;54.756;9.400;2023-03-25T16:55:13;12.80;71.50
9057;DHT22;4563;54.756;9.400;2023-03-25T16:57:45;12.80;71.70